地図

経路データ

SID SEASON NUMBER BASIN SUBBASIN NAME ISO_TIME NATURE LAT LON WMO_WIND WMO_PRES WMO_AGENCY TRACK_TYPE DIST2LAND LANDFALL IFLAG USA_AGENCY USA_ATCF_ID USA_LAT USA_LON USA_RECORD USA_STATUS USA_WIND USA_PRES USA_SSHS USA_R34_NE USA_R34_SE USA_R34_SW USA_R34_NW USA_R50_NE USA_R50_SE USA_R50_SW USA_R50_NW USA_R64_NE USA_R64_SE USA_R64_SW USA_R64_NW USA_POCI USA_ROCI USA_RMW USA_EYE TOKYO_LAT TOKYO_LON TOKYO_GRADE TOKYO_WIND TOKYO_PRES TOKYO_R50_DIR TOKYO_R50_LONG TOKYO_R50_SHORT TOKYO_R30_DIR TOKYO_R30_LONG TOKYO_R30_SHORT TOKYO_LAND CMA_LAT CMA_LON CMA_CAT CMA_WIND CMA_PRES HKO_LAT HKO_LON HKO_CAT HKO_WIND HKO_PRES NEWDELHI_LAT NEWDELHI_LON NEWDELHI_GRADE NEWDELHI_WIND NEWDELHI_PRES NEWDELHI_CI NEWDELHI_DP NEWDELHI_POCI REUNION_LAT REUNION_LON REUNION_TYPE REUNION_WIND REUNION_PRES REUNION_TNUM REUNION_CI REUNION_RMW REUNION_R34_NE REUNION_R34_SE REUNION_R34_SW REUNION_R34_NW REUNION_R50_NE REUNION_R50_SE REUNION_R50_SW REUNION_R50_NW REUNION_R64_NE REUNION_R64_SE REUNION_R64_SW REUNION_R64_NW BOM_LAT BOM_LON BOM_TYPE BOM_WIND BOM_PRES BOM_TNUM BOM_CI BOM_RMW BOM_R34_NE BOM_R34_SE BOM_R34_SW BOM_R34_NW BOM_R50_NE BOM_R50_SE BOM_R50_SW BOM_R50_NW BOM_R64_NE BOM_R64_SE BOM_R64_SW BOM_R64_NW BOM_ROCI BOM_POCI BOM_EYE BOM_POS_METHOD BOM_PRES_METHOD NADI_LAT NADI_LON NADI_CAT NADI_WIND NADI_PRES WELLINGTON_LAT WELLINGTON_LON WELLINGTON_WIND WELLINGTON_PRES DS824_LAT DS824_LON DS824_STAGE DS824_WIND DS824_PRES TD9636_LAT TD9636_LON TD9636_STAGE TD9636_WIND TD9636_PRES TD9635_LAT TD9635_LON TD9635_WIND TD9635_PRES TD9635_ROCI NEUMANN_LAT NEUMANN_LON NEUMANN_CLASS NEUMANN_WIND NEUMANN_PRES MLC_LAT MLC_LON MLC_CLASS MLC_WIND MLC_PRES USA_GUST BOM_GUST BOM_GUST_PER REUNION_GUST REUNION_GUST_PER USA_SEAHGT USA_SEARAD_NE USA_SEARAD_SE USA_SEARAD_SW USA_SEARAD_NW STORM_SPEED STORM_DIR
1885197N12138 1885 29 WP MM NOT_NAMED 1885-07-16 04:00:00 NR 12.0000 137.800 main 1306 1285 __________O___ -1 12.0000 137.800 4 7 274
1885197N12138 1885 29 WP MM NOT_NAMED 1885-07-16 06:00:00 NR 12.0170 137.551 main 1285 1243 __________P___ -1 12.0170 137.551 4 7 274
1885197N12138 1885 29 WP MM NOT_NAMED 1885-07-16 09:00:00 NR 12.0422 137.182 main 1243 1203 __________P___ -1 12.0422 137.182 4 7 274
1885197N12138 1885 29 WP MM NOT_NAMED 1885-07-16 12:00:00 NR 12.0671 136.830 main 1203 1172 __________P___ -1 12.0671 136.830 4 7 274
1885197N12138 1885 29 WP MM NOT_NAMED 1885-07-16 15:00:00 NR 12.0918 136.502 main 1172 1161 __________P___ -1 12.0918 136.502 4 6 274
1885197N12138 1885 29 WP MM NOT_NAMED 1885-07-16 16:00:00 NR 12.1000 136.400 main 1161 1140 __________O___ -1 12.1000 136.400 4 6 275
1885197N12138 1885 29 WP MM NOT_NAMED 1885-07-16 18:00:00 NR 12.1165 136.208 main 1140 1107 __________P___ -1 12.1165 136.208 4 5 275
1885197N12138 1885 29 WP MM NOT_NAMED 1885-07-16 21:00:00 NR 12.1414 135.945 main 1107 1087 __________P___ -1 12.1414 135.945 4 5 276
1885197N12138 1885 29 WP MM NOT_NAMED 1885-07-17 00:00:00 NR 12.1665 135.704 main 1087 1065 __________P___ -1 12.1665 135.704 4 5 276
1885197N12138 1885 29 WP MM NOT_NAMED 1885-07-17 03:00:00 NR 12.1916 135.475 main 1065 1054 __________P___ -1 12.1916 135.475 4 4 276
1885197N12138 1885 29 WP MM NOT_NAMED 1885-07-17 04:00:00 NR 12.2000 135.400 main 1054 1033 __________O___ -1 12.2000 135.400 4 5 276
1885197N12138 1885 29 WP MM NOT_NAMED 1885-07-17 06:00:00 NR 12.2166 135.244 main 1033 1011 __________P___ -1 12.2166 135.244 4 5 276
1885197N12138 1885 29 WP MM NOT_NAMED 1885-07-17 09:00:00 NR 12.2416 135.017 main 1011 991 __________P___ -1 12.2416 135.017 4 4 276
1885197N12138 1885 29 WP MM NOT_NAMED 1885-07-17 12:00:00 NR 12.2666 134.795 main 991 969 __________P___ -1 12.2666 134.795 4 4 277
1885197N12138 1885 29 WP MM NOT_NAMED 1885-07-17 15:00:00 NR 12.2916 134.574 main 969 959 __________P___ -1 12.2916 134.574 4 4 277
1885197N12138 1885 29 WP MM NOT_NAMED 1885-07-17 16:00:00 NR 12.3000 134.500 main 959 948 __________O___ -1 12.3000 134.500 4 4 276
1885197N12138 1885 29 WP MM NOT_NAMED 1885-07-17 18:00:00 NR 12.3140 134.353 main 948 916 __________P___ -1 12.3140 134.353 4 4 276
1885197N12138 1885 29 WP MM NOT_NAMED 1885-07-17 21:00:00 NR 12.3349 134.132 main 916 896 __________P___ -1 12.3349 134.132 4 4 276
1885197N12138 1885 29 WP MM NOT_NAMED 1885-07-18 00:00:00 NR 12.3587 133.908 main 896 874 __________P___ -1 12.3587 133.908 4 4 277
1885197N12138 1885 29 WP MM NOT_NAMED 1885-07-18 03:00:00 NR 12.3883 133.678 main 874 864 __________P___ -1 12.3883 133.678 4 5 278
1885197N12138 1885 29 WP MM NOT_NAMED 1885-07-18 04:00:00 NR 12.4000 133.600 main 864 842 __________O___ -1 12.4000 133.600 4 5 279
1885197N12138 1885 29 WP MM NOT_NAMED 1885-07-18 06:00:00 NR 12.4250 133.439 main 842 823 __________P___ -1 12.4250 133.439 4 5 280
1885197N12138 1885 29 WP MM NOT_NAMED 1885-07-18 09:00:00 NR 12.4687 133.191 main 823 791 __________P___ -1 12.4687 133.191 4 5 281
1885197N12138 1885 29 WP MM NOT_NAMED 1885-07-18 12:00:00 NR 12.5200 132.939 main 791 772 __________P___ -1 12.5200 132.939 4 5 283
1885197N12138 1885 29 WP MM NOT_NAMED 1885-07-18 15:00:00 NR 12.5787 132.685 main 772 761 __________P___ -1 12.5787 132.685 4 5 284
1885197N12138 1885 29 WP MM NOT_NAMED 1885-07-18 16:00:00 NR 12.6000 132.600 main 761 740 __________O___ -1 12.6000 132.600 4 5 284
1885197N12138 1885 29 WP MM NOT_NAMED 1885-07-18 18:00:00 NR 12.6390 132.436 main 740 722 __________P___ -1 12.6390 132.436 4 5 285
1885197N12138 1885 29 WP MM NOT_NAMED 1885-07-18 21:00:00 NR 12.7037 132.190 main 722 694 __________P___ -1 12.7037 132.190 4 5 286
1885197N12138 1885 29 WP MM NOT_NAMED 1885-07-19 00:00:00 NR 12.7786 131.941 main 694 673 __________P___ -1 12.7786 131.941 4 5 288
1885197N12138 1885 29 WP MM NOT_NAMED 1885-07-19 03:00:00 NR 12.8670 131.687 main 676 666 __________P___ -1 12.8670 131.687 4 5 290
1885197N12138 1885 29 WP MM NOT_NAMED 1885-07-19 04:00:00 NR 12.9000 131.600 main 666 646 __________O___ -1 12.9000 131.600 4 6 292
1885197N12138 1885 29 WP MM NOT_NAMED 1885-07-19 06:00:00 NR 12.9719 131.422 main 646 616 __________P___ -1 12.9719 131.422 4 6 294
1885197N12138 1885 29 WP MM NOT_NAMED 1885-07-19 09:00:00 NR 13.0923 131.150 main 616 596 __________P___ -1 13.0923 131.150 4 6 295
1885197N12138 1885 29 WP MM NOT_NAMED 1885-07-19 12:00:00 NR 13.2224 130.872 main 596 566 __________P___ -1 13.2224 130.872 4 6 296
1885197N12138 1885 29 WP MM NOT_NAMED 1885-07-19 15:00:00 NR 13.3558 130.593 main 569 558 __________P___ -1 13.3558 130.593 4 6 296
1885197N12138 1885 29 WP MM NOT_NAMED 1885-07-19 16:00:00 NR 13.4000 130.500 main 558 540 __________O___ -1 13.4000 130.500 4 6 294
1885197N12138 1885 29 WP MM NOT_NAMED 1885-07-19 18:00:00 NR 13.4780 130.314 main 540 512 __________P___ -1 13.4780 130.314 4 6 293
1885197N12138 1885 29 WP MM NOT_NAMED 1885-07-19 21:00:00 NR 13.5950 130.035 main 512 495 __________P___ -1 13.5950 130.035 4 6 294
1885197N12138 1885 29 WP MM NOT_NAMED 1885-07-20 00:00:00 NR 13.7175 129.759 main 495 469 __________P___ -1 13.7175 129.759 4 6 296
1885197N12138 1885 29 WP MM NOT_NAMED 1885-07-20 03:00:00 NR 13.8516 129.488 main 473 463 __________P___ -1 13.8516 129.488 4 6 298
1885197N12138 1885 29 WP MM NOT_NAMED 1885-07-20 04:00:00 NR 13.9000 129.400 main 463 448 __________O___ -1 13.9000 129.400 4 6 301
1885197N12138 1885 29 WP MM NOT_NAMED 1885-07-20 06:00:00 NR 14.0025 129.228 main 448 434 __________P___ -1 14.0025 129.228 4 6 303
1885197N12138 1885 29 WP MM NOT_NAMED 1885-07-20 09:00:00 NR 14.1690 128.975 main 440 418 __________P___ -1 14.1690 128.975 4 6 305
1885197N12138 1885 29 WP MM NOT_NAMED 1885-07-20 12:00:00 NR 14.3478 128.728 main 418 414 __________P___ -1 14.3478 128.728 4 6 307
1885197N12138 1885 29 WP MM NOT_NAMED 1885-07-20 15:00:00 NR 14.5358 128.482 main 414 413 __________P___ -1 14.5358 128.482 4 6 308
1885197N12138 1885 29 WP MM NOT_NAMED 1885-07-20 16:00:00 NR 14.6000 128.400 main 413 404 __________O___ -1 14.6000 128.400 4 6 307
1885197N12138 1885 29 WP MM NOT_NAMED 1885-07-20 18:00:00 NR 14.7171 128.236 main 404 403 __________P___ -1 14.7171 128.236 4 6 307
1885197N12138 1885 29 WP MM NOT_NAMED 1885-07-20 21:00:00 NR 14.8988 127.990 main 403 379 __________P___ -1 14.8988 127.990 4 6 308
1885197N12138 1885 29 WP MM NOT_NAMED 1885-07-21 00:00:00 NR 15.0962 127.741 main 379 368 __________P___ -1 15.0962 127.741 4 6 311
1885197N12138 1885 29 WP MM NOT_NAMED 1885-07-21 03:00:00 NR 15.3186 127.487 main 368 363 __________P___ -1 15.3186 127.487 4 7 313
1885197N12138 1885 29 WP MM NOT_NAMED 1885-07-21 04:00:00 NR 15.4000 127.400 main 363 356 __________O___ -1 15.4000 127.400 4 7 316
1885197N12138 1885 29 WP MM NOT_NAMED 1885-07-21 06:00:00 NR 15.5797 127.222 main 356 349 __________P___ -1 15.5797 127.222 4 8 318
1885197N12138 1885 29 WP MM NOT_NAMED 1885-07-21 09:00:00 NR 15.8747 126.950 main 349 348 __________P___ -1 15.8747 126.950 4 8 319
1885197N12138 1885 29 WP MM NOT_NAMED 1885-07-21 12:00:00 NR 16.1861 126.672 main 356 348 __________P___ -1 16.1861 126.672 4 8 319
1885197N12138 1885 29 WP MM NOT_NAMED 1885-07-21 15:00:00 NR 16.4984 126.393 main 359 359 __________P___ -1 16.4984 126.393 4 8 319
1885197N12138 1885 29 WP MM NOT_NAMED 1885-07-21 16:00:00 NR 16.6000 126.300 main 361 358 __________O___ -1 16.6000 126.300 4 8 315
1885197N12138 1885 29 WP MM NOT_NAMED 1885-07-21 18:00:00 NR 16.7653 126.119 main 368 350 __________P___ -1 16.7653 126.119 4 7 313
1885197N12138 1885 29 WP MM NOT_NAMED 1885-07-21 21:00:00 NR 17.0066 125.847 main 350 330 __________P___ -1 17.0066 125.847 4 7 314
1885197N12138 1885 29 WP MM NOT_NAMED 1885-07-22 00:00:00 NR 17.2675 125.573 main 331 302 __________P___ -1 17.2675 125.573 4 8 317
1885197N12138 1885 29 WP MM NOT_NAMED 1885-07-22 03:00:00 NR 17.5793 125.295 main 304 294 __________P___ -1 17.5793 125.295 4 8 321
1885197N12138 1885 29 WP MM NOT_NAMED 1885-07-22 04:00:00 NR 17.7000 125.200 main 297 283 __________O___ -1 17.7000 125.200 4 10 323
1885197N12138 1885 29 WP MM NOT_NAMED 1885-07-22 06:00:00 NR 17.9690 124.985 main 286 253 __________P___ -1 17.9690 124.985 4 11 325
1885197N12138 1885 29 WP MM NOT_NAMED 1885-07-22 09:00:00 NR 18.4290 124.656 main 253 218 __________P___ -1 18.4290 124.656 4 12 328
1885197N12138 1885 29 WP MM NOT_NAMED 1885-07-22 12:00:00 NR 18.9453 124.343 main 218 214 __________P___ -1 18.9453 124.343 4 12 333
1885197N12138 1885 29 WP MM NOT_NAMED 1885-07-22 15:00:00 NR 19.5056 124.075 main 225 223 __________P___ -1 19.5056 124.075 4 12 337
1885197N12138 1885 29 WP MM NOT_NAMED 1885-07-22 16:00:00 NR 19.7000 124.000 main 230 230 __________O___ -1 19.7000 124.000 4 13 343
1885197N12138 1885 29 WP MM NOT_NAMED 1885-07-22 18:00:00 NR 20.0984 123.877 main 253 253 __________P___ -1 20.0984 123.877 4 13 347
1885197N12138 1885 29 WP MM NOT_NAMED 1885-07-22 21:00:00 NR 20.7280 123.743 main 296 294 __________P___ -1 20.7280 123.743 4 13 351
1885197N12138 1885 29 WP MM NOT_NAMED 1885-07-23 00:00:00 NR 21.3709 123.658 main 294 257 __________P___ -1 21.3709 123.658 4 13 354
1885197N12138 1885 29 WP MM NOT_NAMED 1885-07-23 03:00:00 NR 21.9989 123.610 main 257 247 __________P___ -1 21.9989 123.610 4 13 356
1885197N12138 1885 29 WP MM NOT_NAMED 1885-07-23 04:00:00 NR 22.2000 123.600 main 247 232 __________O___ -1 22.2000 123.600 4 11 355
1885197N12138 1885 29 WP MM NOT_NAMED 1885-07-23 06:00:00 NR 22.5675 123.574 main 232 224 __________P___ -1 22.5675 123.574 4 11 358
1885197N12138 1885 29 WP MM NOT_NAMED 1885-07-23 09:00:00 NR 23.0935 123.561 main 224 199 __________P___ -1 23.0935 123.561 4 10 359
1885197N12138 1885 29 WP MM NOT_NAMED 1885-07-23 12:00:00 NR 23.6059 123.570 main 199 177 __________P___ -1 23.6059 123.570 4 10 2
1885197N12138 1885 29 WP MM NOT_NAMED 1885-07-23 15:00:00 NR 24.1232 123.592 main 177 173 __________P___ -1 24.1232 123.592 4 10 1
1885197N12138 1885 29 WP MM NOT_NAMED 1885-07-23 16:00:00 NR 24.3000 123.600 main 173 164 __________O___ -1 24.3000 123.600 4 11 0
1885197N12138 1885 29 WP MM NOT_NAMED 1885-07-23 18:00:00 NR 24.6630 123.617 main 164 161 __________P___ -1 24.6630 123.617 4 11 3
1885197N12138 1885 29 WP MM NOT_NAMED 1885-07-23 21:00:00 NR 25.2276 123.642 main 162 164 __________P___ -1 25.2276 123.642 4 12 2
1885197N12138 1885 29 WP MM NOT_NAMED 1885-07-24 00:00:00 NR 25.8097 123.667 main 192 192 __________P___ -1 25.8097 123.667 4 12 2
1885197N12138 1885 29 WP MM NOT_NAMED 1885-07-24 03:00:00 NR 26.4018 123.692 main 231 231 __________P___ -1 26.4018 123.692 4 12 3
1885197N12138 1885 29 WP MM NOT_NAMED 1885-07-24 04:00:00 NR 26.6000 123.700 main 246 __________O___ -1 26.6000 123.700 4 12 0

デジタル台風データ・検索

IBTrACS Databaseについて

本データベースは、米国NOAAが公開する1842年以降の世界の熱帯低気圧のベストトラックデータアーカイブInternational Best Track Archive for Climate Stewardship (IBTrACS)を、ウェブで閲覧しやすい形式に変換したものです。

最終更新日:2021-10-27